sensor_id;sensor_type;location;lat;lon;timestamp;temperature;humidity
52495;DHT22;38405;53.212;5.660;2023-06-14T00:00:18;14.80;94.30
52495;DHT22;38405;53.212;5.660;2023-06-14T00:02:45;14.70;94.40
52495;DHT22;38405;53.212;5.660;2023-06-14T00:05:11;14.70;94.50
52495;DHT22;38405;53.212;5.660;2023-06-14T00:07:39;14.70;94.70
52495;DHT22;38405;53.212;5.660;2023-06-14T00:10:09;14.70;94.80
52495;DHT22;38405;53.212;5.660;2023-06-14T00:12:35;14.60;94.90
52495;DHT22;38405;53.212;5.660;2023-06-14T00:15:05;14.60;95.00
52495;DHT22;38405;53.212;5.660;2023-06-14T00:17:31;14.60;95.10
52495;DHT22;38405;53.212;5.660;2023-06-14T00:19:57;14.50;95.20
52495;DHT22;38405;53.212;5.660;2023-06-14T00:22:26;14.50;95.20
52495;DHT22;38405;53.212;5.660;2023-06-14T00:24:56;14.50;95.30
52495;DHT22;38405;53.212;5.660;2023-06-14T00:27:22;14.40;95.40
52495;DHT22;38405;53.212;5.660;2023-06-14T00:29:49;14.40;95.50
52495;DHT22;38405;53.212;5.660;2023-06-14T00:32:14;14.40;95.70
52495;DHT22;38405;53.212;5.660;2023-06-14T00:34:40;14.40;95.70
52495;DHT22;38405;53.212;5.660;2023-06-14T00:37:06;14.30;95.80
52495;DHT22;38405;53.212;5.660;2023-06-14T00:39:31;14.40;96.00
52495;DHT22;38405;53.212;5.660;2023-06-14T00:41:57;14.30;96.00
52495;DHT22;38405;53.212;5.660;2023-06-14T00:44:24;14.30;96.10
52495;DHT22;38405;53.212;5.660;2023-06-14T00:46:50;14.30;96.20
52495;DHT22;38405;53.212;5.660;2023-06-14T00:49:18;14.30;96.40
52495;DHT22;38405;53.212;5.660;2023-06-14T00:51:45;14.30;96.50
52495;DHT22;38405;53.212;5.660;2023-06-14T00:54:10;14.30;96.60
52495;DHT22;38405;53.212;5.660;2023-06-14T00:56:36;14.20;96.80
52495;DHT22;38405;53.212;5.660;2023-06-14T00:59:03;14.20;96.90
52495;DHT22;38405;53.212;5.660;2023-06-14T01:01:30;14.20;97.10
52495;DHT22;38405;53.212;5.660;2023-06-14T01:03:58;14.20;97.40
52495;DHT22;38405;53.212;5.660;2023-06-14T01:06:32;14.10;97.30
52495;DHT22;38405;53.212;5.660;2023-06-14T01:09:24;14.10;97.60
52495;DHT22;38405;53.212;5.660;2023-06-14T01:12:15;14.10;97.60
52495;DHT22;38405;53.212;5.660;2023-06-14T01:14:44;14.10;98.20
52495;DHT22;38405;53.212;5.660;2023-06-14T01:17:11;14.00;97.90
52495;DHT22;38405;53.212;5.660;2023-06-14T01:19:43;14.00;98.20
52495;DHT22;38405;53.212;5.660;2023-06-14T01:22:10;14.00;98.20
52495;DHT22;38405;53.212;5.660;2023-06-14T01:24:36;13.90;98.30
52495;DHT22;38405;53.212;5.660;2023-06-14T01:27:02;14.00;98.60
52495;DHT22;38405;53.212;5.660;2023-06-14T01:29:29;13.90;98.70
52495;DHT22;38405;53.212;5.660;2023-06-14T01:31:59;13.90;98.70
52495;DHT22;38405;53.212;5.660;2023-06-14T01:34:26;13.90;98.80
52495;DHT22;38405;53.212;5.660;2023-06-14T01:36:52;13.90;99.00
52495;DHT22;38405;53.212;5.660;2023-06-14T01:39:20;13.90;99.00
52495;DHT22;38405;53.212;5.660;2023-06-14T01:41:52;13.90;99.10
52495;DHT22;38405;53.212;5.660;2023-06-14T01:44:19;13.90;99.20
52495;DHT22;38405;53.212;5.660;2023-06-14T01:46:45;13.90;99.50
52495;DHT22;38405;53.212;5.660;2023-06-14T01:49:11;13.90;99.40
52495;DHT22;38405;53.212;5.660;2023-06-14T01:51:37;13.90;99.60
52495;DHT22;38405;53.212;5.660;2023-06-14T01:54:03;13.90;99.60
52495;DHT22;38405;53.212;5.660;2023-06-14T01:56:28;13.80;99.70
52495;DHT22;38405;53.212;5.660;2023-06-14T01:58:54;13.80;99.70
52495;DHT22;38405;53.212;5.660;2023-06-14T02:01:20;13.70;99.80
52495;DHT22;38405;53.212;5.660;2023-06-14T02:03:49;13.80;99.90
52495;DHT22;38405;53.212;5.660;2023-06-14T02:06:16;13.80;99.90
52495;DHT22;38405;53.212;5.660;2023-06-14T02:08:42;13.80;99.90
52495;DHT22;38405;53.212;5.660;2023-06-14T02:11:08;13.70;99.90
52495;DHT22;38405;53.212;5.660;2023-06-14T02:13:34;13.70;99.90
52495;DHT22;38405;53.212;5.660;2023-06-14T02:16:00;13.60;99.90
52495;DHT22;38405;53.212;5.660;2023-06-14T02:18:26;13.60;99.90
52495;DHT22;38405;53.212;5.660;2023-06-14T02:20:53;13.60;99.90
52495;DHT22;38405;53.212;5.660;2023-06-14T02:23:20;13.60;99.90
52495;DHT22;38405;53.212;5.660;2023-06-14T02:25:49;13.60;99.90
52495;DHT22;38405;53.212;5.660;2023-06-14T02:28:14;13.60;99.90
52495;DHT22;38405;53.212;5.660;2023-06-14T02:30:40;13.50;99.90
52495;DHT22;38405;53.212;5.660;2023-06-14T02:33:10;13.50;99.90
52495;DHT22;38405;53.212;5.660;2023-06-14T02:35:38;13.50;99.90
52495;DHT22;38405;53.212;5.660;2023-06-14T02:38:04;13.50;99.90
52495;DHT22;38405;53.212;5.660;2023-06-14T02:40:29;13.40;99.90
52495;DHT22;38405;53.212;5.660;2023-06-14T02:42:55;13.40;99.90
52495;DHT22;38405;53.212;5.660;2023-06-14T02:45:21;13.40;99.90
52495;DHT22;38405;53.212;5.660;2023-06-14T02:47:47;13.40;99.90
52495;DHT22;38405;53.212;5.660;2023-06-14T02:50:12;13.30;99.90
52495;DHT22;38405;53.212;5.660;2023-06-14T02:52:38;13.30;99.90
52495;DHT22;38405;53.212;5.660;2023-06-14T02:55:04;13.30;99.90
52495;DHT22;38405;53.212;5.660;2023-06-14T02:57:31;13.30;99.90
52495;DHT22;38405;53.212;5.660;2023-06-14T02:59:57;13.20;99.90
52495;DHT22;38405;53.212;5.660;2023-06-14T03:02:22;13.20;99.90
52495;DHT22;38405;53.212;5.660;2023-06-14T03:04:48;13.20;99.90
52495;DHT22;38405;53.212;5.660;2023-06-14T03:07:14;13.10;99.90
52495;DHT22;38405;53.212;5.660;2023-06-14T03:09:45;13.10;99.90
52495;DHT22;38405;53.212;5.660;2023-06-14T03:12:11;13.10;99.90
52495;DHT22;38405;53.212;5.660;2023-06-14T03:14:37;13.10;99.90
52495;DHT22;38405;53.212;5.660;2023-06-14T03:17:04;13.10;99.90
52495;DHT22;38405;53.212;5.660;2023-06-14T03:19:30;13.10;99.90
52495;DHT22;38405;53.212;5.660;2023-06-14T03:21:56;13.00;99.90
52495;DHT22;38405;53.212;5.660;2023-06-14T03:24:25;13.00;99.90
52495;DHT22;38405;53.212;5.660;2023-06-14T03:26:53;13.00;99.90
52495;DHT22;38405;53.212;5.660;2023-06-14T03:29:19;13.00;99.90
52495;DHT22;38405;53.212;5.660;2023-06-14T03:32:01;13.00;99.90
52495;DHT22;38405;53.212;5.660;2023-06-14T03:34:30;13.00;99.90
52495;DHT22;38405;53.212;5.660;2023-06-14T03:36:56;13.00;99.90
52495;DHT22;38405;53.212;5.660;2023-06-14T03:39:22;13.00;99.90
52495;DHT22;38405;53.212;5.660;2023-06-14T03:41:48;13.00;99.90
52495;DHT22;38405;53.212;5.660;2023-06-14T03:44:18;13.00;99.90
52495;DHT22;38405;53.212;5.660;2023-06-14T03:46:46;13.00;99.90
52495;DHT22;38405;53.212;5.660;2023-06-14T03:49:12;13.10;99.90
52495;DHT22;38405;53.212;5.660;2023-06-14T03:51:38;13.10;99.90
52495;DHT22;38405;53.212;5.660;2023-06-14T03:54:05;13.10;99.90
52495;DHT22;38405;53.212;5.660;2023-06-14T03:56:32;13.10;99.90
52495;DHT22;38405;53.212;5.660;2023-06-14T03:58:57;13.10;99.90
52495;DHT22;38405;53.212;5.660;2023-06-14T04:01:23;13.10;99.90
52495;DHT22;38405;53.212;5.660;2023-06-14T04:03:58;13.10;99.90
52495;DHT22;38405;53.212;5.660;2023-06-14T04:06:23;13.20;99.90
52495;DHT22;38405;53.212;5.660;2023-06-14T04:08:57;13.20;99.90
52495;DHT22;38405;53.212;5.660;2023-06-14T04:11:23;13.20;99.90
52495;DHT22;38405;53.212;5.660;2023-06-14T04:13:50;13.30;99.90
52495;DHT22;38405;53.212;5.660;2023-06-14T04:16:19;13.30;99.90
52495;DHT22;38405;53.212;5.660;2023-06-14T04:18:45;13.40;99.90
52495;DHT22;38405;53.212;5.660;2023-06-14T04:21:12;13.50;99.90
52495;DHT22;38405;53.212;5.660;2023-06-14T04:23:37;14.00;99.90
52495;DHT22;38405;53.212;5.660;2023-06-14T04:26:06;14.80;99.90
52495;DHT22;38405;53.212;5.660;2023-06-14T04:28:31;15.60;99.90
52495;DHT22;38405;53.212;5.660;2023-06-14T04:30:59;16.20;99.90
52495;DHT22;38405;53.212;5.660;2023-06-14T04:33:30;16.70;99.90
52495;DHT22;38405;53.212;5.660;2023-06-14T04:35:57;17.10;99.90
52495;DHT22;38405;53.212;5.660;2023-06-14T04:38:23;17.10;99.90
52495;DHT22;38405;53.212;5.660;2023-06-14T04:40:50;16.60;99.90
52495;DHT22;38405;53.212;5.660;2023-06-14T04:43:18;16.10;99.90
52495;DHT22;38405;53.212;5.660;2023-06-14T04:45:54;15.80;99.90
52495;DHT22;38405;53.212;5.660;2023-06-14T04:48:22;15.50;99.90
52495;DHT22;38405;53.212;5.660;2023-06-14T04:50:48;15.30;99.90
52495;DHT22;38405;53.212;5.660;2023-06-14T04:53:13;15.20;99.90
52495;DHT22;38405;53.212;5.660;2023-06-14T04:55:39;15.10;99.90
52495;DHT22;38405;53.212;5.660;2023-06-14T04:58:08;15.00;99.90
52495;DHT22;38405;53.212;5.660;2023-06-14T05:00:33;15.00;99.90
52495;DHT22;38405;53.212;5.660;2023-06-14T05:03:02;15.00;99.90
52495;DHT22;38405;53.212;5.660;2023-06-14T05:05:28;15.10;99.90
52495;DHT22;38405;53.212;5.660;2023-06-14T05:07:54;15.10;99.90
52495;DHT22;38405;53.212;5.660;2023-06-14T05:10:19;15.10;99.90
52495;DHT22;38405;53.212;5.660;2023-06-14T05:12:45;15.10;99.90
52495;DHT22;38405;53.212;5.660;2023-06-14T05:15:11;15.20;99.90
52495;DHT22;38405;53.212;5.660;2023-06-14T05:17:36;15.20;99.90
52495;DHT22;38405;53.212;5.660;2023-06-14T05:20:03;15.30;99.90
52495;DHT22;38405;53.212;5.660;2023-06-14T05:22:29;15.30;99.90
52495;DHT22;38405;53.212;5.660;2023-06-14T05:24:55;15.40;99.90
52495;DHT22;38405;53.212;5.660;2023-06-14T05:27:21;15.40;99.90
52495;DHT22;38405;53.212;5.660;2023-06-14T05:29:46;15.50;99.90
52495;DHT22;38405;53.212;5.660;2023-06-14T05:32:12;15.60;99.90
52495;DHT22;38405;53.212;5.660;2023-06-14T05:34:38;15.60;99.90
52495;DHT22;38405;53.212;5.660;2023-06-14T05:37:04;15.70;99.90
52495;DHT22;38405;53.212;5.660;2023-06-14T05:39:29;15.70;99.90
52495;DHT22;38405;53.212;5.660;2023-06-14T05:41:55;15.80;99.90
52495;DHT22;38405;53.212;5.660;2023-06-14T05:44:21;15.90;99.90
52495;DHT22;38405;53.212;5.660;2023-06-14T05:46:46;15.90;99.90
52495;DHT22;38405;53.212;5.660;2023-06-14T05:49:12;16.00;99.90
52495;DHT22;38405;53.212;5.660;2023-06-14T05:51:37;16.10;99.90
52495;DHT22;38405;53.212;5.660;2023-06-14T05:54:04;16.20;99.90
52495;DHT22;38405;53.212;5.660;2023-06-14T05:56:30;16.30;99.90
52495;DHT22;38405;53.212;5.660;2023-06-14T05:58:56;16.30;99.90
52495;DHT22;38405;53.212;5.660;2023-06-14T06:01:21;16.40;99.90
52495;DHT22;38405;53.212;5.660;2023-06-14T06:03:47;16.50;99.90
52495;DHT22;38405;53.212;5.660;2023-06-14T06:06:13;16.60;99.90
52495;DHT22;38405;53.212;5.660;2023-06-14T06:08:39;16.70;99.90
52495;DHT22;38405;53.212;5.660;2023-06-14T06:11:05;16.80;99.90
52495;DHT22;38405;53.212;5.660;2023-06-14T06:13:31;16.90;99.90
52495;DHT22;38405;53.212;5.660;2023-06-14T06:15:57;17.00;99.90
52495;DHT22;38405;53.212;5.660;2023-06-14T06:18:23;17.10;99.90
52495;DHT22;38405;53.212;5.660;2023-06-14T06:20:51;17.10;99.90
52495;DHT22;38405;53.212;5.660;2023-06-14T06:23:17;17.50;99.90
52495;DHT22;38405;53.212;5.660;2023-06-14T06:25:43;18.60;99.90
52495;DHT22;38405;53.212;5.660;2023-06-14T06:28:08;20.20;99.90
52495;DHT22;38405;53.212;5.660;2023-06-14T06:30:34;21.40;98.70
52495;DHT22;38405;53.212;5.660;2023-06-14T06:33:01;22.30;97.50
52495;DHT22;38405;53.212;5.660;2023-06-14T06:35:27;23.20;96.50
52495;DHT22;38405;53.212;5.660;2023-06-14T06:37:56;23.90;95.60
52495;DHT22;38405;53.212;5.660;2023-06-14T06:40:24;24.70;94.40
52495;DHT22;38405;53.212;5.660;2023-06-14T06:42:50;25.30;93.70
52495;DHT22;38405;53.212;5.660;2023-06-14T06:45:18;25.70;93.00
52495;DHT22;38405;53.212;5.660;2023-06-14T06:47:44;26.00;92.20
52495;DHT22;38405;53.212;5.660;2023-06-14T06:50:10;26.40;91.70
52495;DHT22;38405;53.212;5.660;2023-06-14T06:52:35;26.30;90.70
52495;DHT22;38405;53.212;5.660;2023-06-14T06:55:01;26.50;90.20
52495;DHT22;38405;53.212;5.660;2023-06-14T06:57:27;26.80;90.10
52495;DHT22;38405;53.212;5.660;2023-06-14T06:59:54;27.20;88.90
52495;DHT22;38405;53.212;5.660;2023-06-14T07:02:20;27.40;88.30
52495;DHT22;38405;53.212;5.660;2023-06-14T07:04:46;27.80;87.50
52495;DHT22;38405;53.212;5.660;2023-06-14T07:07:13;28.00;86.00
52495;DHT22;38405;53.212;5.660;2023-06-14T07:09:39;28.20;84.90
52495;DHT22;38405;53.212;5.660;2023-06-14T07:12:06;28.10;83.80
52495;DHT22;38405;53.212;5.660;2023-06-14T07:14:32;28.30;82.60
52495;DHT22;38405;53.212;5.660;2023-06-14T07:16:58;28.40;82.30
52495;DHT22;38405;53.212;5.660;2023-06-14T07:19:23;28.10;82.20
52495;DHT22;38405;53.212;5.660;2023-06-14T07:21:49;28.40;82.00
52495;DHT22;38405;53.212;5.660;2023-06-14T07:24:15;28.60;81.20
52495;DHT22;38405;53.212;5.660;2023-06-14T07:26:43;28.60;79.90
52495;DHT22;38405;53.212;5.660;2023-06-14T07:29:08;28.40;77.90
52495;DHT22;38405;53.212;5.660;2023-06-14T07:31:34;28.40;79.00
52495;DHT22;38405;53.212;5.660;2023-06-14T07:34:00;28.30;78.20
52495;DHT22;38405;53.212;5.660;2023-06-14T07:36:25;28.30;78.00
52495;DHT22;38405;53.212;5.660;2023-06-14T07:38:51;28.90;78.30
52495;DHT22;38405;53.212;5.660;2023-06-14T07:41:17;29.30;77.90
52495;DHT22;38405;53.212;5.660;2023-06-14T07:43:42;29.50;77.50
52495;DHT22;38405;53.212;5.660;2023-06-14T07:46:11;29.30;76.40
52495;DHT22;38405;53.212;5.660;2023-06-14T07:48:37;29.00;74.50
52495;DHT22;38405;53.212;5.660;2023-06-14T07:51:02;29.20;75.70
52495;DHT22;38405;53.212;5.660;2023-06-14T07:53:32;29.10;75.70
52495;DHT22;38405;53.212;5.660;2023-06-14T07:55:58;29.10;75.60
52495;DHT22;38405;53.212;5.660;2023-06-14T07:58:23;29.10;75.00
52495;DHT22;38405;53.212;5.660;2023-06-14T08:00:49;28.80;74.30
52495;DHT22;38405;53.212;5.660;2023-06-14T08:03:15;29.10;74.10
52495;DHT22;38405;53.212;5.660;2023-06-14T08:05:41;28.80;74.40
52495;DHT22;38405;53.212;5.660;2023-06-14T08:08:06;28.80;74.70
52495;DHT22;38405;53.212;5.660;2023-06-14T08:10:33;28.80;74.90
52495;DHT22;38405;53.212;5.660;2023-06-14T08:12:59;28.80;73.70
52495;DHT22;38405;53.212;5.660;2023-06-14T08:15:28;29.00;73.60
52495;DHT22;38405;53.212;5.660;2023-06-14T08:17:53;29.00;73.50
52495;DHT22;38405;53.212;5.660;2023-06-14T08:20:19;29.10;73.80
52495;DHT22;38405;53.212;5.660;2023-06-14T08:22:45;29.30;72.70
52495;DHT22;38405;53.212;5.660;2023-06-14T08:25:13;29.30;71.00
52495;DHT22;38405;53.212;5.660;2023-06-14T08:27:39;29.10;71.60
52495;DHT22;38405;53.212;5.660;2023-06-14T08:30:05;29.00;71.40
52495;DHT22;38405;53.212;5.660;2023-06-14T08:32:33;29.20;72.00
52495;DHT22;38405;53.212;5.660;2023-06-14T08:35:00;29.30;71.60
52495;DHT22;38405;53.212;5.660;2023-06-14T08:37:25;29.10;70.90
52495;DHT22;38405;53.212;5.660;2023-06-14T08:39:52;29.10;71.70
52495;DHT22;38405;53.212;5.660;2023-06-14T08:42:19;29.20;72.00
52495;DHT22;38405;53.212;5.660;2023-06-14T08:44:46;29.30;71.70
52495;DHT22;38405;53.212;5.660;2023-06-14T08:47:12;29.10;71.70
52495;DHT22;38405;53.212;5.660;2023-06-14T08:49:40;29.10;71.40
52495;DHT22;38405;53.212;5.660;2023-06-14T08:52:10;29.00;70.80
52495;DHT22;38405;53.212;5.660;2023-06-14T08:54:38;28.90;71.10
52495;DHT22;38405;53.212;5.660;2023-06-14T08:57:11;28.80;70.70
52495;DHT22;38405;53.212;5.660;2023-06-14T08:59:45;28.70;70.90
52495;DHT22;38405;53.212;5.660;2023-06-14T09:02:12;28.90;70.90
52495;DHT22;38405;53.212;5.660;2023-06-14T09:04:40;29.10;70.80
52495;DHT22;38405;53.212;5.660;2023-06-14T09:07:07;29.00;70.90
52495;DHT22;38405;53.212;5.660;2023-06-14T09:09:32;29.30;71.90
52495;DHT22;38405;53.212;5.660;2023-06-14T09:12:01;29.00;70.70
52495;DHT22;38405;53.212;5.660;2023-06-14T09:14:28;28.80;69.90
52495;DHT22;38405;53.212;5.660;2023-06-14T09:16:54;29.00;69.60
52495;DHT22;38405;53.212;5.660;2023-06-14T09:19:26;29.20;70.00
52495;DHT22;38405;53.212;5.660;2023-06-14T09:21:54;29.10;69.40
52495;DHT22;38405;53.212;5.660;2023-06-14T09:24:26;29.10;68.80
52495;DHT22;38405;53.212;5.660;2023-06-14T09:26:52;29.10;69.70
52495;DHT22;38405;53.212;5.660;2023-06-14T09:29:19;28.70;69.90
52495;DHT22;38405;53.212;5.660;2023-06-14T09:31:46;28.50;69.90
52495;DHT22;38405;53.212;5.660;2023-06-14T09:34:12;28.60;69.80
52495;DHT22;38405;53.212;5.660;2023-06-14T09:36:39;28.50;70.80
52495;DHT22;38405;53.212;5.660;2023-06-14T09:39:06;28.70;70.50
52495;DHT22;38405;53.212;5.660;2023-06-14T09:41:34;28.70;70.00
52495;DHT22;38405;53.212;5.660;2023-06-14T09:44:02;28.60;69.00
52495;DHT22;38405;53.212;5.660;2023-06-14T09:46:29;28.50;69.60
52495;DHT22;38405;53.212;5.660;2023-06-14T09:48:59;28.40;69.40
52495;DHT22;38405;53.212;5.660;2023-06-14T09:51:26;28.00;68.90
52495;DHT22;38405;53.212;5.660;2023-06-14T09:53:52;27.80;69.30
52495;DHT22;38405;53.212;5.660;2023-06-14T09:56:29;27.60;69.30
52495;DHT22;38405;53.212;5.660;2023-06-14T09:58:59;27.40;66.60
52495;DHT22;38405;53.212;5.660;2023-06-14T10:01:30;27.50;68.90
52495;DHT22;38405;53.212;5.660;2023-06-14T10:04:06;27.30;68.90
52495;DHT22;38405;53.212;5.660;2023-06-14T10:06:41;27.10;68.20
52495;DHT22;38405;53.212;5.660;2023-06-14T10:09:10;27.00;69.80
52495;DHT22;38405;53.212;5.660;2023-06-14T10:11:36;27.00;69.40
52495;DHT22;38405;53.212;5.660;2023-06-14T10:14:05;26.90;69.30
52495;DHT22;38405;53.212;5.660;2023-06-14T10:19:22;26.80;68.90
52495;DHT22;38405;53.212;5.660;2023-06-14T10:22:02;26.70;69.50
52495;DHT22;38405;53.212;5.660;2023-06-14T10:24:44;26.60;68.70
52495;DHT22;38405;53.212;5.660;2023-06-14T10:27:13;26.50;67.90
52495;DHT22;38405;53.212;5.660;2023-06-14T10:32:22;26.80;69.00
52495;DHT22;38405;53.212;5.660;2023-06-14T10:34:58;26.70;68.70
52495;DHT22;38405;53.212;5.660;2023-06-14T10:37:24;26.50;68.80
52495;DHT22;38405;53.212;5.660;2023-06-14T10:39:50;26.60;69.40
52495;DHT22;38405;53.212;5.660;2023-06-14T10:42:18;26.70;69.00
52495;DHT22;38405;53.212;5.660;2023-06-14T10:47:33;26.80;69.20
52495;DHT22;38405;53.212;5.660;2023-06-14T10:50:06;26.90;69.40
52495;DHT22;38405;53.212;5.660;2023-06-14T10:52:38;26.90;68.10
52495;DHT22;38405;53.212;5.660;2023-06-14T10:55:13;27.00;69.00
52495;DHT22;38405;53.212;5.660;2023-06-14T10:57:48;26.90;69.10
52495;DHT22;38405;53.212;5.660;2023-06-14T11:00:24;26.80;69.10
52495;DHT22;38405;53.212;5.660;2023-06-14T11:02:52;26.80;69.60
52495;DHT22;38405;53.212;5.660;2023-06-14T11:05:25;26.90;69.60
52495;DHT22;38405;53.212;5.660;2023-06-14T11:11:01;26.90;69.80
52495;DHT22;38405;53.212;5.660;2023-06-14T11:13:31;26.70;68.00
52495;DHT22;38405;53.212;5.660;2023-06-14T11:15:58;26.30;69.90
52495;DHT22;38405;53.212;5.660;2023-06-14T11:18:24;26.10;70.70
52495;DHT22;38405;53.212;5.660;2023-06-14T11:20:50;26.20;70.80
52495;DHT22;38405;53.212;5.660;2023-06-14T11:23:20;26.40;71.10
52495;DHT22;38405;53.212;5.660;2023-06-14T11:25:50;26.50;70.90
52495;DHT22;38405;53.212;5.660;2023-06-14T11:28:16;26.50;69.90
52495;DHT22;38405;53.212;5.660;2023-06-14T11:30:42;26.40;70.30
52495;DHT22;38405;53.212;5.660;2023-06-14T11:33:16;26.40;70.20
52495;DHT22;38405;53.212;5.660;2023-06-14T11:35:44;26.30;69.80
52495;DHT22;38405;53.212;5.660;2023-06-14T11:38:11;26.20;69.60
52495;DHT22;38405;53.212;5.660;2023-06-14T11:40:38;26.10;69.50
52495;DHT22;38405;53.212;5.660;2023-06-14T11:43:07;26.10;69.70
52495;DHT22;38405;53.212;5.660;2023-06-14T11:45:32;26.00;69.80
52495;DHT22;38405;53.212;5.660;2023-06-14T11:47:58;26.00;70.10
52495;DHT22;38405;53.212;5.660;2023-06-14T11:50:28;25.80;70.00
52495;DHT22;38405;53.212;5.660;2023-06-14T11:52:55;25.80;70.20
52495;DHT22;38405;53.212;5.660;2023-06-14T11:55:22;26.00;70.30
52495;DHT22;38405;53.212;5.660;2023-06-14T11:57:48;26.30;70.60
52495;DHT22;38405;53.212;5.660;2023-06-14T12:00:14;26.30;70.40
52495;DHT22;38405;53.212;5.660;2023-06-14T12:02:41;26.60;70.80
52495;DHT22;38405;53.212;5.660;2023-06-14T12:05:07;26.70;70.50
52495;DHT22;38405;53.212;5.660;2023-06-14T12:07:37;26.80;70.40
52495;DHT22;38405;53.212;5.660;2023-06-14T12:10:06;26.50;69.90
52495;DHT22;38405;53.212;5.660;2023-06-14T12:12:36;26.10;70.00
52495;DHT22;38405;53.212;5.660;2023-06-14T12:15:10;26.10;70.00
52495;DHT22;38405;53.212;5.660;2023-06-14T12:17:39;25.90;69.20
52495;DHT22;38405;53.212;5.660;2023-06-14T12:20:11;25.90;70.10
52495;DHT22;38405;53.212;5.660;2023-06-14T12:22:59;26.10;70.10
52495;DHT22;38405;53.212;5.660;2023-06-14T12:25:28;26.10;70.00
52495;DHT22;38405;53.212;5.660;2023-06-14T12:27:57;26.00;70.60
52495;DHT22;38405;53.212;5.660;2023-06-14T12:30:23;25.90;70.30
52495;DHT22;38405;53.212;5.660;2023-06-14T12:32:48;25.80;70.40
52495;DHT22;38405;53.212;5.660;2023-06-14T12:35:18;26.00;70.70
52495;DHT22;38405;53.212;5.660;2023-06-14T12:37:46;26.10;69.70
52495;DHT22;38405;53.212;5.660;2023-06-14T12:40:12;26.10;69.70
52495;DHT22;38405;53.212;5.660;2023-06-14T12:42:41;26.30;69.80
52495;DHT22;38405;53.212;5.660;2023-06-14T12:45:09;26.40;69.40
52495;DHT22;38405;53.212;5.660;2023-06-14T12:47:34;26.40;70.00
52495;DHT22;38405;53.212;5.660;2023-06-14T12:50:03;26.50;70.20
52495;DHT22;38405;53.212;5.660;2023-06-14T12:52:32;26.70;70.40
52495;DHT22;38405;53.212;5.660;2023-06-14T12:55:02;26.80;70.40
52495;DHT22;38405;53.212;5.660;2023-06-14T12:57:28;26.70;73.50
52495;DHT22;38405;53.212;5.660;2023-06-14T12:59:54;26.50;75.10
52495;DHT22;38405;53.212;5.660;2023-06-14T13:02:21;26.30;76.30
52495;DHT22;38405;53.212;5.660;2023-06-14T13:04:52;26.00;77.30
52495;DHT22;38405;53.212;5.660;2023-06-14T13:07:17;25.50;78.80
52495;DHT22;38405;53.212;5.660;2023-06-14T13:09:43;25.30;79.80
52495;DHT22;38405;53.212;5.660;2023-06-14T13:12:10;25.10;80.80
52495;DHT22;38405;53.212;5.660;2023-06-14T13:14:40;24.90;81.20
52495;DHT22;38405;53.212;5.660;2023-06-14T13:17:08;24.90;81.70
52495;DHT22;38405;53.212;5.660;2023-06-14T13:19:34;24.90;82.10
52495;DHT22;38405;53.212;5.660;2023-06-14T13:22:00;24.80;82.00
52495;DHT22;38405;53.212;5.660;2023-06-14T13:24:26;24.60;82.20
52495;DHT22;38405;53.212;5.660;2023-06-14T13:26:53;24.60;82.50
52495;DHT22;38405;53.212;5.660;2023-06-14T13:29:18;24.50;82.80
52495;DHT22;38405;53.212;5.660;2023-06-14T13:31:44;24.60;82.90
52495;DHT22;38405;53.212;5.660;2023-06-14T13:34:10;24.50;82.90
52495;DHT22;38405;53.212;5.660;2023-06-14T13:36:36;24.50;83.00
52495;DHT22;38405;53.212;5.660;2023-06-14T13:39:01;24.50;83.40
52495;DHT22;38405;53.212;5.660;2023-06-14T13:41:28;24.50;83.50
52495;DHT22;38405;53.212;5.660;2023-06-14T13:43:59;24.50;83.70
52495;DHT22;38405;53.212;5.660;2023-06-14T13:46:25;24.50;83.70
52495;DHT22;38405;53.212;5.660;2023-06-14T13:48:52;24.50;83.80
52495;DHT22;38405;53.212;5.660;2023-06-14T13:51:18;24.50;83.80
52495;DHT22;38405;53.212;5.660;2023-06-14T13:54:07;24.50;83.80
52495;DHT22;38405;53.212;5.660;2023-06-14T13:56:33;24.70;84.80
52495;DHT22;38405;53.212;5.660;2023-06-14T13:58:58;24.80;83.90
52495;DHT22;38405;53.212;5.660;2023-06-14T14:01:28;24.80;83.80
52495;DHT22;38405;53.212;5.660;2023-06-14T14:03:54;24.90;83.60
52495;DHT22;38405;53.212;5.660;2023-06-14T14:06:20;24.90;83.70
52495;DHT22;38405;53.212;5.660;2023-06-14T14:08:46;24.90;83.50
52495;DHT22;38405;53.212;5.660;2023-06-14T14:11:11;24.80;83.40
52495;DHT22;38405;53.212;5.660;2023-06-14T14:13:40;24.80;84.00
52495;DHT22;38405;53.212;5.660;2023-06-14T14:16:07;24.80;84.00
52495;DHT22;38405;53.212;5.660;2023-06-14T14:18:36;24.70;83.50
52495;DHT22;38405;53.212;5.660;2023-06-14T14:21:02;24.60;83.50
52495;DHT22;38405;53.212;5.660;2023-06-14T14:23:28;24.40;83.80
52495;DHT22;38405;53.212;5.660;2023-06-14T14:25:55;24.30;84.70
52495;DHT22;38405;53.212;5.660;2023-06-14T14:28:23;24.30;84.60
52495;DHT22;38405;53.212;5.660;2023-06-14T14:30:49;24.20;84.70
52495;DHT22;38405;53.212;5.660;2023-06-14T14:33:15;24.20;85.70
52495;DHT22;38405;53.212;5.660;2023-06-14T14:35:44;24.10;85.70
52495;DHT22;38405;53.212;5.660;2023-06-14T14:38:14;24.00;85.20
52495;DHT22;38405;53.212;5.660;2023-06-14T14:40:42;24.10;85.30
52495;DHT22;38405;53.212;5.660;2023-06-14T14:43:08;24.10;85.40
52495;DHT22;38405;53.212;5.660;2023-06-14T14:45:33;23.90;85.30
52495;DHT22;38405;53.212;5.660;2023-06-14T14:48:00;23.80;85.60
52495;DHT22;38405;53.212;5.660;2023-06-14T14:50:26;23.80;85.90
52495;DHT22;38405;53.212;5.660;2023-06-14T14:52:52;23.90;86.10
52495;DHT22;38405;53.212;5.660;2023-06-14T14:55:18;23.90;86.10
52495;DHT22;38405;53.212;5.660;2023-06-14T14:57:45;23.90;86.00
52495;DHT22;38405;53.212;5.660;2023-06-14T15:00:11;24.00;85.90
52495;DHT22;38405;53.212;5.660;2023-06-14T15:02:36;24.00;85.60
52495;DHT22;38405;53.212;5.660;2023-06-14T15:05:02;24.00;85.70
52495;DHT22;38405;53.212;5.660;2023-06-14T15:07:28;23.90;85.80
52495;DHT22;38405;53.212;5.660;2023-06-14T15:10:00;24.00;86.20
52495;DHT22;38405;53.212;5.660;2023-06-14T15:12:26;24.00;86.80
52495;DHT22;38405;53.212;5.660;2023-06-14T15:14:52;24.00;85.80
52495;DHT22;38405;53.212;5.660;2023-06-14T15:17:21;24.00;86.10
52495;DHT22;38405;53.212;5.660;2023-06-14T15:19:47;24.00;86.30
52495;DHT22;38405;53.212;5.660;2023-06-14T15:22:14;23.90;86.10
52495;DHT22;38405;53.212;5.660;2023-06-14T15:24:43;24.00;86.10
52495;DHT22;38405;53.212;5.660;2023-06-14T15:27:09;24.00;85.80
52495;DHT22;38405;53.212;5.660;2023-06-14T15:29:36;23.90;85.90
52495;DHT22;38405;53.212;5.660;2023-06-14T15:32:02;23.80;86.00
52495;DHT22;38405;53.212;5.660;2023-06-14T15:34:28;23.60;86.00
52495;DHT22;38405;53.212;5.660;2023-06-14T15:36:54;23.60;86.30
52495;DHT22;38405;53.212;5.660;2023-06-14T15:39:19;23.60;86.90
52495;DHT22;38405;53.212;5.660;2023-06-14T15:41:45;23.60;86.60